sensor_id;sensor_type;location;lat;lon;timestamp;P1;durP1;ratioP1;P2;durP2;ratioP2
35330;SDS011;21441;52.190;20.910;2023-06-22T00:01:17;32.20;;;28.92;;
35330;SDS011;21441;52.190;20.910;2023-06-22T00:03:43;31.73;;;28.60;;
35330;SDS011;21441;52.190;20.910;2023-06-22T00:06:11;32.33;;;29.13;;
35330;SDS011;21441;52.190;20.910;2023-06-22T00:08:37;31.63;;;28.52;;
35330;SDS011;21441;52.190;20.910;2023-06-22T00:11:05;33.33;;;29.98;;
35330;SDS011;21441;52.190;20.910;2023-06-22T00:13:33;33.58;;;30.23;;
35330;SDS011;21441;52.190;20.910;2023-06-22T00:16:00;34.08;;;30.52;;
35330;SDS011;21441;52.190;20.910;2023-06-22T00:18:27;33.97;;;30.60;;
35330;SDS011;21441;52.190;20.910;2023-06-22T00:20:56;32.70;;;29.23;;
35330;SDS011;21441;52.190;20.910;2023-06-22T00:23:24;33.28;;;30.08;;
35330;SDS011;21441;52.190;20.910;2023-06-22T00:25:51;32.10;;;29.02;;
35330;SDS011;21441;52.190;20.910;2023-06-22T00:28:18;32.85;;;29.40;;
35330;SDS011;21441;52.190;20.910;2023-06-22T00:30:47;33.20;;;29.80;;
35330;SDS011;21441;52.190;20.910;2023-06-22T00:33:15;35.03;;;31.07;;
35330;SDS011;21441;52.190;20.910;2023-06-22T00:35:42;33.20;;;30.00;;
35330;SDS011;21441;52.190;20.910;2023-06-22T00:38:09;34.03;;;30.42;;
35330;SDS011;21441;52.190;20.910;2023-06-22T00:40:36;33.17;;;29.95;;
35330;SDS011;21441;52.190;20.910;2023-06-22T00:43:03;32.33;;;29.17;;
35330;SDS011;21441;52.190;20.910;2023-06-22T00:45:31;34.08;;;30.58;;
35330;SDS011;21441;52.190;20.910;2023-06-22T00:48:00;31.73;;;28.60;;
35330;SDS011;21441;52.190;20.910;2023-06-22T00:50:28;34.92;;;28.80;;
35330;SDS011;21441;52.190;20.910;2023-06-22T00:53:00;32.78;;;29.48;;
35330;SDS011;21441;52.190;20.910;2023-06-22T00:55:30;32.92;;;29.83;;
35330;SDS011;21441;52.190;20.910;2023-06-22T00:57:57;34.85;;;30.17;;
35330;SDS011;21441;52.190;20.910;2023-06-22T01:00:24;33.78;;;30.25;;
35330;SDS011;21441;52.190;20.910;2023-06-22T01:02:51;33.47;;;30.13;;
35330;SDS011;21441;52.190;20.910;2023-06-22T01:05:21;33.70;;;30.20;;
35330;SDS011;21441;52.190;20.910;2023-06-22T01:07:55;34.47;;;30.63;;
35330;SDS011;21441;52.190;20.910;2023-06-22T01:10:29;33.92;;;30.55;;
35330;SDS011;21441;52.190;20.910;2023-06-22T01:13:07;34.08;;;30.65;;
35330;SDS011;21441;52.190;20.910;2023-06-22T01:15:41;34.22;;;30.15;;
35330;SDS011;21441;52.190;20.910;2023-06-22T01:18:14;32.00;;;28.90;;
35330;SDS011;21441;52.190;20.910;2023-06-22T01:20:44;32.85;;;29.48;;
35330;SDS011;21441;52.190;20.910;2023-06-22T01:23:16;32.55;;;29.35;;
35330;SDS011;21441;52.190;20.910;2023-06-22T01:25:49;33.22;;;29.98;;
35330;SDS011;21441;52.190;20.910;2023-06-22T01:28:36;32.97;;;29.65;;
35330;SDS011;21441;52.190;20.910;2023-06-22T01:31:09;32.90;;;29.60;;
35330;SDS011;21441;52.190;20.910;2023-06-22T01:33:39;33.03;;;29.50;;
35330;SDS011;21441;52.190;20.910;2023-06-22T01:36:09;34.78;;;31.30;;
35330;SDS011;21441;52.190;20.910;2023-06-22T01:38:37;34.28;;;30.88;;
35330;SDS011;21441;52.190;20.910;2023-06-22T01:41:05;37.17;;;30.23;;
35330;SDS011;21441;52.190;20.910;2023-06-22T01:43:32;34.95;;;31.38;;
35330;SDS011;21441;52.190;20.910;2023-06-22T01:46:01;35.40;;;31.95;;
35330;SDS011;21441;52.190;20.910;2023-06-22T01:48:29;35.88;;;32.30;;
35330;SDS011;21441;52.190;20.910;2023-06-22T01:50:58;35.58;;;31.77;;
35330;SDS011;21441;52.190;20.910;2023-06-22T01:53:25;35.97;;;32.05;;
35330;SDS011;21441;52.190;20.910;2023-06-22T01:55:52;34.85;;;31.35;;
35330;SDS011;21441;52.190;20.910;2023-06-22T01:58:20;36.17;;;32.40;;
35330;SDS011;21441;52.190;20.910;2023-06-22T02:00:59;37.10;;;33.15;;
35330;SDS011;21441;52.190;20.910;2023-06-22T02:03:38;38.83;;;34.63;;
35330;SDS011;21441;52.190;20.910;2023-06-22T02:06:11;41.20;;;36.80;;
35330;SDS011;21441;52.190;20.910;2023-06-22T02:08:46;43.40;;;38.00;;
35330;SDS011;21441;52.190;20.910;2023-06-22T02:11:16;41.75;;;37.25;;
35330;SDS011;21441;52.190;20.910;2023-06-22T02:16:15;45.28;;;40.40;;
35330;SDS011;21441;52.190;20.910;2023-06-22T02:18:45;49.00;;;42.92;;
35330;SDS011;21441;52.190;20.910;2023-06-22T02:21:13;59.78;;;46.08;;
35330;SDS011;21441;52.190;20.910;2023-06-22T02:23:40;55.75;;;45.30;;
35330;SDS011;21441;52.190;20.910;2023-06-22T02:26:07;66.28;;;51.25;;
35330;SDS011;21441;52.190;20.910;2023-06-22T02:28:34;70.15;;;50.28;;
35330;SDS011;21441;52.190;20.910;2023-06-22T02:31:02;75.38;;;55.25;;
35330;SDS011;21441;52.190;20.910;2023-06-22T02:33:30;76.80;;;56.20;;
35330;SDS011;21441;52.190;20.910;2023-06-22T02:35:57;80.50;;;56.40;;
35330;SDS011;21441;52.190;20.910;2023-06-22T02:38:24;76.30;;;58.38;;
35330;SDS011;21441;52.190;20.910;2023-06-22T02:40:52;78.78;;;58.38;;
35330;SDS011;21441;52.190;20.910;2023-06-22T02:43:18;84.18;;;58.67;;
35330;SDS011;21441;52.190;20.910;2023-06-22T02:45:46;74.70;;;56.00;;
35330;SDS011;21441;52.190;20.910;2023-06-22T02:48:12;75.70;;;56.90;;
35330;SDS011;21441;52.190;20.910;2023-06-22T02:50:41;77.45;;;57.67;;
35330;SDS011;21441;52.190;20.910;2023-06-22T02:53:08;80.70;;;58.85;;
35330;SDS011;21441;52.190;20.910;2023-06-22T02:55:35;82.15;;;60.70;;
35330;SDS011;21441;52.190;20.910;2023-06-22T02:58:02;74.10;;;56.83;;
35330;SDS011;21441;52.190;20.910;2023-06-22T03:00:30;73.65;;;55.63;;
35330;SDS011;21441;52.190;20.910;2023-06-22T03:02:57;67.50;;;55.80;;
35330;SDS011;21441;52.190;20.910;2023-06-22T03:05:25;72.32;;;54.95;;
35330;SDS011;21441;52.190;20.910;2023-06-22T03:07:53;70.50;;;54.60;;
35330;SDS011;21441;52.190;20.910;2023-06-22T03:10:20;68.32;;;52.92;;
35330;SDS011;21441;52.190;20.910;2023-06-22T03:12:47;66.18;;;52.60;;
35330;SDS011;21441;52.190;20.910;2023-06-22T03:15:14;65.88;;;51.78;;
35330;SDS011;21441;52.190;20.910;2023-06-22T03:17:42;68.15;;;53.72;;
35330;SDS011;21441;52.190;20.910;2023-06-22T03:20:09;65.80;;;51.92;;
35330;SDS011;21441;52.190;20.910;2023-06-22T03:22:37;66.05;;;51.40;;
35330;SDS011;21441;52.190;20.910;2023-06-22T03:25:07;61.67;;;50.58;;
35330;SDS011;21441;52.190;20.910;2023-06-22T03:27:38;61.45;;;50.60;;
35330;SDS011;21441;52.190;20.910;2023-06-22T03:30:06;59.83;;;50.65;;
35330;SDS011;21441;52.190;20.910;2023-06-22T03:32:34;63.10;;;50.72;;
35330;SDS011;21441;52.190;20.910;2023-06-22T03:35:02;59.22;;;49.38;;
35330;SDS011;21441;52.190;20.910;2023-06-22T03:37:29;57.60;;;47.40;;
35330;SDS011;21441;52.190;20.910;2023-06-22T03:39:56;53.47;;;47.47;;
35330;SDS011;21441;52.190;20.910;2023-06-22T03:42:24;57.83;;;48.30;;
35330;SDS011;21441;52.190;20.910;2023-06-22T03:44:51;56.05;;;46.38;;
35330;SDS011;21441;52.190;20.910;2023-06-22T03:47:18;61.53;;;46.28;;
35330;SDS011;21441;52.190;20.910;2023-06-22T03:49:45;58.42;;;45.78;;
35330;SDS011;21441;52.190;20.910;2023-06-22T03:52:11;52.38;;;45.20;;
35330;SDS011;21441;52.190;20.910;2023-06-22T03:54:38;51.95;;;44.47;;
35330;SDS011;21441;52.190;20.910;2023-06-22T03:57:06;49.63;;;43.35;;
35330;SDS011;21441;52.190;20.910;2023-06-22T03:59:34;52.47;;;44.17;;
35330;SDS011;21441;52.190;20.910;2023-06-22T04:02:02;50.50;;;43.20;;
35330;SDS011;21441;52.190;20.910;2023-06-22T04:04:29;48.25;;;42.28;;
35330;SDS011;21441;52.190;20.910;2023-06-22T04:06:56;47.42;;;40.40;;
35330;SDS011;21441;52.190;20.910;2023-06-22T04:09:23;46.13;;;41.10;;
35330;SDS011;21441;52.190;20.910;2023-06-22T04:11:50;51.60;;;41.85;;
35330;SDS011;21441;52.190;20.910;2023-06-22T04:14:17;49.08;;;40.70;;
35330;SDS011;21441;52.190;20.910;2023-06-22T04:16:45;45.10;;;40.03;;
35330;SDS011;21441;52.190;20.910;2023-06-22T04:19:13;45.80;;;39.15;;
35330;SDS011;21441;52.190;20.910;2023-06-22T04:21:42;44.38;;;38.63;;
35330;SDS011;21441;52.190;20.910;2023-06-22T04:24:09;43.05;;;38.35;;
35330;SDS011;21441;52.190;20.910;2023-06-22T04:26:36;41.30;;;36.33;;
35330;SDS011;21441;52.190;20.910;2023-06-22T04:29:04;41.75;;;37.25;;
35330;SDS011;21441;52.190;20.910;2023-06-22T04:31:31;39.63;;;35.10;;
35330;SDS011;21441;52.190;20.910;2023-06-22T04:34:03;41.33;;;36.85;;
35330;SDS011;21441;52.190;20.910;2023-06-22T04:36:33;39.40;;;35.17;;
35330;SDS011;21441;52.190;20.910;2023-06-22T04:39:06;40.40;;;34.85;;
35330;SDS011;21441;52.190;20.910;2023-06-22T04:41:34;36.95;;;32.95;;
35330;SDS011;21441;52.190;20.910;2023-06-22T04:44:08;40.80;;;33.70;;
35330;SDS011;21441;52.190;20.910;2023-06-22T04:46:36;37.58;;;32.13;;
35330;SDS011;21441;52.190;20.910;2023-06-22T04:49:05;35.25;;;31.35;;
35330;SDS011;21441;52.190;20.910;2023-06-22T04:51:37;38.00;;;32.78;;
35330;SDS011;21441;52.190;20.910;2023-06-22T04:54:04;39.30;;;33.10;;
35330;SDS011;21441;52.190;20.910;2023-06-22T04:56:31;40.10;;;35.72;;
35330;SDS011;21441;52.190;20.910;2023-06-22T04:58:59;39.30;;;31.63;;
35330;SDS011;21441;52.190;20.910;2023-06-22T05:01:26;32.88;;;29.35;;
35330;SDS011;21441;52.190;20.910;2023-06-22T05:03:54;34.83;;;31.08;;
35330;SDS011;21441;52.190;20.910;2023-06-22T05:06:23;34.72;;;31.02;;
35330;SDS011;21441;52.190;20.910;2023-06-22T05:08:51;37.70;;;30.83;;
35330;SDS011;21441;52.190;20.910;2023-06-22T05:11:18;35.30;;;29.25;;
35330;SDS011;21441;52.190;20.910;2023-06-22T05:13:45;31.58;;;28.27;;
35330;SDS011;21441;52.190;20.910;2023-06-22T05:16:12;33.85;;;30.08;;
35330;SDS011;21441;52.190;20.910;2023-06-22T05:18:39;33.08;;;29.30;;
35330;SDS011;21441;52.190;20.910;2023-06-22T05:21:07;31.90;;;28.60;;
35330;SDS011;21441;52.190;20.910;2023-06-22T05:23:35;32.42;;;28.73;;
35330;SDS011;21441;52.190;20.910;2023-06-22T05:26:02;32.38;;;28.65;;
35330;SDS011;21441;52.190;20.910;2023-06-22T05:28:29;29.80;;;26.70;;
35330;SDS011;21441;52.190;20.910;2023-06-22T05:30:56;30.90;;;27.63;;
35330;SDS011;21441;52.190;20.910;2023-06-22T05:33:23;30.77;;;27.55;;
35330;SDS011;21441;52.190;20.910;2023-06-22T05:35:50;29.60;;;26.27;;
35330;SDS011;21441;52.190;20.910;2023-06-22T05:38:17;30.73;;;27.10;;
35330;SDS011;21441;52.190;20.910;2023-06-22T05:40:45;27.67;;;24.50;;
35330;SDS011;21441;52.190;20.910;2023-06-22T05:43:12;28.52;;;25.40;;
35330;SDS011;21441;52.190;20.910;2023-06-22T05:45:39;29.70;;;26.10;;
35330;SDS011;21441;52.190;20.910;2023-06-22T05:48:06;39.45;;;26.60;;
35330;SDS011;21441;52.190;20.910;2023-06-22T05:50:32;33.30;;;25.50;;
35330;SDS011;21441;52.190;20.910;2023-06-22T05:53:00;28.25;;;25.20;;
35330;SDS011;21441;52.190;20.910;2023-06-22T05:55:26;27.67;;;24.15;;
35330;SDS011;21441;52.190;20.910;2023-06-22T05:57:55;27.73;;;24.73;;
35330;SDS011;21441;52.190;20.910;2023-06-22T06:00:22;27.67;;;24.73;;
35330;SDS011;21441;52.190;20.910;2023-06-22T06:02:49;27.73;;;24.55;;
35330;SDS011;21441;52.190;20.910;2023-06-22T06:05:17;27.45;;;24.52;;
35330;SDS011;21441;52.190;20.910;2023-06-22T06:07:45;29.50;;;24.35;;
35330;SDS011;21441;52.190;20.910;2023-06-22T06:10:12;27.13;;;24.10;;
35330;SDS011;21441;52.190;20.910;2023-06-22T06:12:40;26.85;;;23.95;;
35330;SDS011;21441;52.190;20.910;2023-06-22T06:15:08;26.42;;;22.58;;
35330;SDS011;21441;52.190;20.910;2023-06-22T06:17:37;25.58;;;22.92;;
35330;SDS011;21441;52.190;20.910;2023-06-22T06:20:11;24.90;;;22.10;;
35330;SDS011;21441;52.190;20.910;2023-06-22T06:22:38;25.20;;;22.02;;
35330;SDS011;21441;52.190;20.910;2023-06-22T06:25:06;25.48;;;22.45;;
35330;SDS011;21441;52.190;20.910;2023-06-22T06:27:33;22.85;;;20.45;;
35330;SDS011;21441;52.190;20.910;2023-06-22T06:30:00;28.10;;;21.35;;
35330;SDS011;21441;52.190;20.910;2023-06-22T06:32:29;23.55;;;21.13;;
35330;SDS011;21441;52.190;20.910;2023-06-22T06:34:55;23.15;;;20.50;;
35330;SDS011;21441;52.190;20.910;2023-06-22T06:37:23;22.52;;;20.08;;
35330;SDS011;21441;52.190;20.910;2023-06-22T06:39:50;23.20;;;20.85;;
35330;SDS011;21441;52.190;20.910;2023-06-22T06:42:17;26.05;;;19.83;;
35330;SDS011;21441;52.190;20.910;2023-06-22T06:44:44;21.88;;;19.63;;
35330;SDS011;21441;52.190;20.910;2023-06-22T06:47:12;19.63;;;17.67;;
35330;SDS011;21441;52.190;20.910;2023-06-22T06:49:40;20.30;;;18.20;;
35330;SDS011;21441;52.190;20.910;2023-06-22T06:52:07;18.65;;;16.83;;
35330;SDS011;21441;52.190;20.910;2023-06-22T06:54:34;16.88;;;15.18;;
35330;SDS011;21441;52.190;20.910;2023-06-22T06:57:01;19.88;;;15.50;;
35330;SDS011;21441;52.190;20.910;2023-06-22T06:59:29;16.23;;;14.68;;
35330;SDS011;21441;52.190;20.910;2023-06-22T07:01:56;18.50;;;14.85;;
35330;SDS011;21441;52.190;20.910;2023-06-22T07:04:23;16.50;;;14.50;;
35330;SDS011;21441;52.190;20.910;2023-06-22T07:06:52;18.13;;;14.60;;
35330;SDS011;21441;52.190;20.910;2023-06-22T07:09:18;15.60;;;14.02;;
35330;SDS011;21441;52.190;20.910;2023-06-22T07:11:45;15.23;;;13.73;;
35330;SDS011;21441;52.190;20.910;2023-06-22T07:14:12;15.00;;;13.38;;
35330;SDS011;21441;52.190;20.910;2023-06-22T07:16:39;15.18;;;12.63;;
35330;SDS011;21441;52.190;20.910;2023-06-22T07:19:07;14.68;;;12.20;;
35330;SDS011;21441;52.190;20.910;2023-06-22T07:21:34;14.13;;;12.35;;
35330;SDS011;21441;52.190;20.910;2023-06-22T07:24:04;14.05;;;12.07;;
35330;SDS011;21441;52.190;20.910;2023-06-22T07:26:32;12.68;;;11.40;;
35330;SDS011;21441;52.190;20.910;2023-06-22T07:28:59;12.98;;;11.68;;
35330;SDS011;21441;52.190;20.910;2023-06-22T07:31:26;15.27;;;10.85;;
35330;SDS011;21441;52.190;20.910;2023-06-22T07:33:53;14.57;;;11.63;;
35330;SDS011;21441;52.190;20.910;2023-06-22T07:36:20;14.77;;;11.50;;
35330;SDS011;21441;52.190;20.910;2023-06-22T07:38:48;12.68;;;10.18;;
35330;SDS011;21441;52.190;20.910;2023-06-22T07:41:17;11.82;;;9.88;;
35330;SDS011;21441;52.190;20.910;2023-06-22T07:43:44;11.38;;;10.18;;
35330;SDS011;21441;52.190;20.910;2023-06-22T07:46:12;11.38;;;9.98;;
35330;SDS011;21441;52.190;20.910;2023-06-22T07:48:39;12.50;;;11.20;;
35330;SDS011;21441;52.190;20.910;2023-06-22T07:51:07;11.80;;;10.55;;
35330;SDS011;21441;52.190;20.910;2023-06-22T07:53:34;11.32;;;10.15;;
35330;SDS011;21441;52.190;20.910;2023-06-22T07:56:02;12.02;;;9.82;;
35330;SDS011;21441;52.190;20.910;2023-06-22T08:01:00;13.70;;;9.52;;
35330;SDS011;21441;52.190;20.910;2023-06-22T08:03:28;11.98;;;9.95;;
35330;SDS011;21441;52.190;20.910;2023-06-22T08:05:55;12.57;;;8.88;;
35330;SDS011;21441;52.190;20.910;2023-06-22T08:08:22;10.00;;;8.90;;
35330;SDS011;21441;52.190;20.910;2023-06-22T08:10:50;12.25;;;9.82;;
35330;SDS011;21441;52.190;20.910;2023-06-22T08:13:16;10.68;;;7.90;;
35330;SDS011;21441;52.190;20.910;2023-06-22T08:15:46;10.30;;;9.15;;
35330;SDS011;21441;52.190;20.910;2023-06-22T08:18:13;9.30;;;7.75;;
35330;SDS011;21441;52.190;20.910;2023-06-22T08:20:40;10.30;;;8.55;;
35330;SDS011;21441;52.190;20.910;2023-06-22T08:23:07;8.07;;;7.32;;
35330;SDS011;21441;52.190;20.910;2023-06-22T08:25:34;9.50;;;7.07;;
35330;SDS011;21441;52.190;20.910;2023-06-22T08:28:01;9.65;;;6.68;;
35330;SDS011;21441;52.190;20.910;2023-06-22T08:30:29;8.82;;;7.22;;
35330;SDS011;21441;52.190;20.910;2023-06-22T08:32:57;8.07;;;6.65;;
35330;SDS011;21441;52.190;20.910;2023-06-22T08:35:25;9.27;;;6.43;;
35330;SDS011;21441;52.190;20.910;2023-06-22T08:37:51;5.75;;;5.25;;
35330;SDS011;21441;52.190;20.910;2023-06-22T08:40:21;5.77;;;5.23;;
35330;SDS011;21441;52.190;20.910;2023-06-22T08:42:48;7.53;;;5.03;;
35330;SDS011;21441;52.190;20.910;2023-06-22T08:45:15;6.30;;;5.30;;
35330;SDS011;21441;52.190;20.910;2023-06-22T08:47:42;9.20;;;5.40;;
35330;SDS011;21441;52.190;20.910;2023-06-22T08:50:11;5.50;;;4.90;;
35330;SDS011;21441;52.190;20.910;2023-06-22T08:52:39;4.93;;;4.43;;
35330;SDS011;21441;52.190;20.910;2023-06-22T08:55:08;6.87;;;4.43;;
35330;SDS011;21441;52.190;20.910;2023-06-22T08:57:35;5.03;;;4.40;;
35330;SDS011;21441;52.190;20.910;2023-06-22T09:00:05;6.15;;;5.15;;
35330;SDS011;21441;52.190;20.910;2023-06-22T09:02:42;7.07;;;4.20;;
35330;SDS011;21441;52.190;20.910;2023-06-22T09:05:11;8.57;;;4.75;;
35330;SDS011;21441;52.190;20.910;2023-06-22T09:07:38;5.70;;;5.13;;
35330;SDS011;21441;52.190;20.910;2023-06-22T09:10:06;7.35;;;4.82;;
35330;SDS011;21441;52.190;20.910;2023-06-22T09:12:33;8.63;;;5.03;;
35330;SDS011;21441;52.190;20.910;2023-06-22T09:15:03;5.32;;;4.47;;
35330;SDS011;21441;52.190;20.910;2023-06-22T09:17:32;9.68;;;4.78;;
35330;SDS011;21441;52.190;20.910;2023-06-22T09:20:01;5.72;;;3.78;;
35330;SDS011;21441;52.190;20.910;2023-06-22T09:22:32;4.32;;;3.70;;
35330;SDS011;21441;52.190;20.910;2023-06-22T09:24:59;5.22;;;3.45;;
35330;SDS011;21441;52.190;20.910;2023-06-22T09:27:27;6.65;;;4.10;;
35330;SDS011;21441;52.190;20.910;2023-06-22T09:29:54;4.60;;;4.03;;
35330;SDS011;21441;52.190;20.910;2023-06-22T09:32:23;3.72;;;3.38;;
35330;SDS011;21441;52.190;20.910;2023-06-22T09:34:50;5.03;;;3.92;;
35330;SDS011;21441;52.190;20.910;2023-06-22T09:37:18;4.90;;;3.80;;
35330;SDS011;21441;52.190;20.910;2023-06-22T09:39:46;5.00;;;3.85;;
35330;SDS011;21441;52.190;20.910;2023-06-22T09:42:13;4.70;;;4.07;;
35330;SDS011;21441;52.190;20.910;2023-06-22T09:44:41;4.38;;;3.97;;
35330;SDS011;21441;52.190;20.910;2023-06-22T09:47:07;4.40;;;4.00;;
35330;SDS011;21441;52.190;20.910;2023-06-22T09:49:35;4.63;;;4.20;;
35330;SDS011;21441;52.190;20.910;2023-06-22T09:52:02;4.78;;;3.97;;
35330;SDS011;21441;52.190;20.910;2023-06-22T09:54:29;4.28;;;3.80;;
35330;SDS011;21441;52.190;20.910;2023-06-22T09:56:57;6.53;;;4.63;;
35330;SDS011;21441;52.190;20.910;2023-06-22T09:59:25;4.60;;;3.80;;
35330;SDS011;21441;52.190;20.910;2023-06-22T10:01:52;6.78;;;4.63;;
35330;SDS011;21441;52.190;20.910;2023-06-22T10:04:19;5.30;;;4.50;;
35330;SDS011;21441;52.190;20.910;2023-06-22T10:06:46;7.57;;;4.05;;
35330;SDS011;21441;52.190;20.910;2023-06-22T10:09:13;4.75;;;4.22;;
35330;SDS011;21441;52.190;20.910;2023-06-22T10:11:40;5.72;;;4.93;;
35330;SDS011;21441;52.190;20.910;2023-06-22T10:14:08;6.95;;;4.40;;
35330;SDS011;21441;52.190;20.910;2023-06-22T10:16:35;5.55;;;4.95;;
35330;SDS011;21441;52.190;20.910;2023-06-22T10:19:03;4.88;;;4.28;;
35330;SDS011;21441;52.190;20.910;2023-06-22T10:21:30;5.15;;;4.65;;
35330;SDS011;21441;52.190;20.910;2023-06-22T10:23:57;4.90;;;4.43;;
35330;SDS011;21441;52.190;20.910;2023-06-22T10:26:24;7.50;;;4.90;;
35330;SDS011;21441;52.190;20.910;2023-06-22T10:28:54;5.38;;;4.70;;
35330;SDS011;21441;52.190;20.910;2023-06-22T10:31:22;7.07;;;4.28;;
35330;SDS011;21441;52.190;20.910;2023-06-22T10:33:49;5.88;;;4.57;;
35330;SDS011;21441;52.190;20.910;2023-06-22T10:36:16;8.48;;;5.72;;
35330;SDS011;21441;52.190;20.910;2023-06-22T10:38:43;5.63;;;4.28;;
35330;SDS011;21441;52.190;20.910;2023-06-22T10:41:10;6.78;;;4.72;;
35330;SDS011;21441;52.190;20.910;2023-06-22T10:43:37;5.63;;;4.65;;
35330;SDS011;21441;52.190;20.910;2023-06-22T10:46:04;6.15;;;4.63;;
35330;SDS011;21441;52.190;20.910;2023-06-22T10:48:34;7.80;;;4.85;;
35330;SDS011;21441;52.190;20.910;2023-06-22T10:51:01;6.00;;;4.53;;
35330;SDS011;21441;52.190;20.910;2023-06-22T10:53:28;5.45;;;4.60;;
35330;SDS011;21441;52.190;20.910;2023-06-22T10:55:55;5.35;;;4.40;;
35330;SDS011;21441;52.190;20.910;2023-06-22T10:58:22;4.57;;;3.63;;
35330;SDS011;21441;52.190;20.910;2023-06-22T11:00:48;5.50;;;5.00;;
35330;SDS011;21441;52.190;20.910;2023-06-22T11:03:16;6.03;;;4.38;;
35330;SDS011;21441;52.190;20.910;2023-06-22T11:05:44;4.82;;;4.43;;
35330;SDS011;21441;52.190;20.910;2023-06-22T11:08:13;5.50;;;4.50;;
35330;SDS011;21441;52.190;20.910;2023-06-22T11:10:40;7.28;;;4.63;;
35330;SDS011;21441;52.190;20.910;2023-06-22T11:13:07;6.22;;;4.75;;
35330;SDS011;21441;52.190;20.910;2023-06-22T11:15:35;4.97;;;4.35;;
35330;SDS011;21441;52.190;20.910;2023-06-22T11:18:03;5.30;;;4.45;;
35330;SDS011;21441;52.190;20.910;2023-06-22T11:20:33;6.15;;;4.25;;
35330;SDS011;21441;52.190;20.910;2023-06-22T11:23:05;6.18;;;4.40;;
35330;SDS011;21441;52.190;20.910;2023-06-22T11:25:32;5.15;;;4.45;;
35330;SDS011;21441;52.190;20.910;2023-06-22T11:28:01;6.00;;;4.63;;
35330;SDS011;21441;52.190;20.910;2023-06-22T11:30:28;9.27;;;6.15;;
35330;SDS011;21441;52.190;20.910;2023-06-22T11:32:56;6.72;;;5.20;;
35330;SDS011;21441;52.190;20.910;2023-06-22T11:35:23;7.72;;;5.10;;
35330;SDS011;21441;52.190;20.910;2023-06-22T11:37:50;6.15;;;4.85;;
35330;SDS011;21441;52.190;20.910;2023-06-22T11:40:19;6.03;;;4.70;;
35330;SDS011;21441;52.190;20.910;2023-06-22T11:42:46;5.32;;;4.68;;
35330;SDS011;21441;52.190;20.910;2023-06-22T11:45:13;7.70;;;4.90;;
35330;SDS011;21441;52.190;20.910;2023-06-22T11:47:40;6.90;;;4.70;;
35330;SDS011;21441;52.190;20.910;2023-06-22T11:50:07;5.03;;;4.53;;
35330;SDS011;21441;52.190;20.910;2023-06-22T11:52:35;6.80;;;4.85;;
35330;SDS011;21441;52.190;20.910;2023-06-22T11:55:02;10.38;;;4.93;;
35330;SDS011;21441;52.190;20.910;2023-06-22T11:57:34;6.72;;;5.18;;
35330;SDS011;21441;52.190;20.910;2023-06-22T12:00:02;5.00;;;4.10;;
35330;SDS011;21441;52.190;20.910;2023-06-22T12:02:39;5.32;;;4.13;;
35330;SDS011;21441;52.190;20.910;2023-06-22T12:05:06;4.53;;;4.10;;
35330;SDS011;21441;52.190;20.910;2023-06-22T12:07:34;4.72;;;4.25;;
35330;SDS011;21441;52.190;20.910;2023-06-22T12:10:01;8.23;;;4.72;;
35330;SDS011;21441;52.190;20.910;2023-06-22T12:12:28;7.38;;;4.60;;
35330;SDS011;21441;52.190;20.910;2023-06-22T12:14:57;6.95;;;4.65;;
35330;SDS011;21441;52.190;20.910;2023-06-22T12:17:28;8.30;;;4.70;;
35330;SDS011;21441;52.190;20.910;2023-06-22T12:19:55;5.10;;;4.57;;
35330;SDS011;21441;52.190;20.910;2023-06-22T12:22:23;5.90;;;4.43;;
35330;SDS011;21441;52.190;20.910;2023-06-22T12:24:50;4.35;;;3.92;;
35330;SDS011;21441;52.190;20.910;2023-06-22T12:27:17;4.90;;;4.35;;
35330;SDS011;21441;52.190;20.910;2023-06-22T12:29:45;7.13;;;4.78;;
35330;SDS011;21441;52.190;20.910;2023-06-22T12:32:14;7.05;;;4.07;;
35330;SDS011;21441;52.190;20.910;2023-06-22T12:34:41;8.43;;;7.43;;
35330;SDS011;21441;52.190;20.910;2023-06-22T12:37:09;7.05;;;4.38;;
35330;SDS011;21441;52.190;20.910;2023-06-22T12:39:36;9.25;;;5.20;;
35330;SDS011;21441;52.190;20.910;2023-06-22T12:42:03;4.78;;;4.32;;
35330;SDS011;21441;52.190;20.910;2023-06-22T12:44:32;6.97;;;4.47;;
35330;SDS011;21441;52.190;20.910;2023-06-22T12:46:59;4.25;;;3.85;;
35330;SDS011;21441;52.190;20.910;2023-06-22T12:49:27;4.85;;;4.30;;
35330;SDS011;21441;52.190;20.910;2023-06-22T12:51:54;6.90;;;4.20;;
35330;SDS011;21441;52.190;20.910;2023-06-22T12:54:21;8.00;;;4.10;;
35330;SDS011;21441;52.190;20.910;2023-06-22T12:56:49;4.22;;;3.70;;
35330;SDS011;21441;52.190;20.910;2023-06-22T12:59:16;7.13;;;4.47;;
35330;SDS011;21441;52.190;20.910;2023-06-22T13:01:43;4.82;;;4.30;;
35330;SDS011;21441;52.190;20.910;2023-06-22T13:04:10;4.65;;;3.70;;
35330;SDS011;21441;52.190;20.910;2023-06-22T13:06:41;4.82;;;3.83;;
35330;SDS011;21441;52.190;20.910;2023-06-22T13:09:09;5.18;;;3.80;;
35330;SDS011;21441;52.190;20.910;2023-06-22T13:11:36;4.35;;;3.85;;
35330;SDS011;21441;52.190;20.910;2023-06-22T13:14:03;5.40;;;3.35;;
35330;SDS011;21441;52.190;20.910;2023-06-22T13:16:31;6.80;;;4.10;;
35330;SDS011;21441;52.190;20.910;2023-06-22T13:18:58;3.83;;;3.47;;
35330;SDS011;21441;52.190;20.910;2023-06-22T13:21:25;5.18;;;3.63;;
35330;SDS011;21441;52.190;20.910;2023-06-22T13:23:53;4.50;;;3.80;;
35330;SDS011;21441;52.190;20.910;2023-06-22T13:26:20;6.13;;;4.05;;
35330;SDS011;21441;52.190;20.910;2023-06-22T13:28:47;5.60;;;3.40;;
35330;SDS011;21441;52.190;20.910;2023-06-22T13:31:15;3.95;;;3.30;;
35330;SDS011;21441;52.190;20.910;2023-06-22T13:33:41;5.40;;;3.50;;
35330;SDS011;21441;52.190;20.910;2023-06-22T13:36:10;4.28;;;3.85;;
35330;SDS011;21441;52.190;20.910;2023-06-22T13:38:37;4.45;;;3.95;;
35330;SDS011;21441;52.190;20.910;2023-06-22T13:41:06;3.85;;;3.55;;
35330;SDS011;21441;52.190;20.910;2023-06-22T13:43:33;5.78;;;3.47;;
35330;SDS011;21441;52.190;20.910;2023-06-22T13:46:00;4.22;;;3.53;;
35330;SDS011;21441;52.190;20.910;2023-06-22T13:48:26;5.28;;;3.67;;
35330;SDS011;21441;52.190;20.910;2023-06-22T13:50:54;3.80;;;3.42;;
35330;SDS011;21441;52.190;20.910;2023-06-22T13:53:21;4.30;;;3.90;;
35330;SDS011;21441;52.190;20.910;2023-06-22T13:55:48;4.43;;;3.85;;
35330;SDS011;21441;52.190;20.910;2023-06-22T13:58:17;4.40;;;3.67;;
35330;SDS011;21441;52.190;20.910;2023-06-22T14:00:45;4.28;;;3.42;;
35330;SDS011;21441;52.190;20.910;2023-06-22T14:03:13;4.78;;;3.60;;
35330;SDS011;21441;52.190;20.910;2023-06-22T14:05:41;5.15;;;3.70;;
35330;SDS011;21441;52.190;20.910;2023-06-22T14:08:08;4.30;;;3.70;;
35330;SDS011;21441;52.190;20.910;2023-06-22T14:10:36;4.47;;;3.25;;
35330;SDS011;21441;52.190;20.910;2023-06-22T14:13:02;5.43;;;3.55;;
35330;SDS011;21441;52.190;20.910;2023-06-22T14:15:32;6.80;;;4.43;;
35330;SDS011;21441;52.190;20.910;2023-06-22T14:17:59;6.78;;;3.70;;
35330;SDS011;21441;52.190;20.910;2023-06-22T14:20:27;4.82;;;4.32;;
35330;SDS011;21441;52.190;20.910;2023-06-22T14:22:53;4.88;;;4.30;;
35330;SDS011;21441;52.190;20.910;2023-06-22T14:25:20;6.38;;;4.40;;
35330;SDS011;21441;52.190;20.910;2023-06-22T14:27:47;5.82;;;4.57;;
35330;SDS011;21441;52.190;20.910;2023-06-22T14:30:14;6.70;;;4.47;;